Time;durP1;ratioP1;P1;durP2;ratioP2;P2;SDS_P1;SDS_P2;PMS_P1;PMS_P2;Temp;Humidity;BMP_temperature;BMP_pressure;BME280_temperature;BME280_humidity;BME280_pressure;Samples;Min_cycle;Max_cycle;Signal;HPM_P1;HPM_P2
2024/02/05 00:01:10;;;;;;;24.45;4.90;;;11.40;12.60;;;;;;20618936;28;20066;-40
2024/02/05 00:11:10;;;;;;;24.27;5.32;;;11.40;12.60;;;;;;20643655;28;20038;-40
2024/02/05 00:21:11;;;;;;;22.42;4.82;;;11.30;14.20;;;;;;20641595;28;20053;-40
2024/02/05 00:31:12;;;;;;;25.60;5.45;;;11.30;14.20;;;;;;20639989;28;20665;-40
2024/02/05 00:41:12;;;;;;;22.60;4.80;;;11.10;15.90;;;;;;20642511;28;20542;-40
2024/02/05 00:51:13;;;;;;;26.95;5.22;;;11.10;15.30;;;;;;20652813;28;20228;-40
2024/02/05 01:01:13;;;;;;;27.98;5.20;;;11.10;15.70;;;;;;20660487;28;20054;-40
2024/02/05 01:11:15;;;;;;;26.60;5.03;;;11.00;16.90;;;;;;20656360;28;20046;-40
2024/02/05 01:21:16;;;;;;;28.48;5.65;;;11.00;16.20;;;;;;20661158;28;20038;-40
2024/02/05 01:31:16;;;;;;;24.98;5.60;;;10.90;18.20;;;;;;20638056;28;20069;-40
2024/02/05 01:41:17;;;;;;;18.02;4.95;;;10.90;17.80;;;;;;20654948;28;20065;-40
2024/02/05 01:51:22;;;;;;;24.17;5.23;;;10.80;15.70;;;;;;20655053;28;20057;-40
2024/02/05 02:01:22;;;;;;;26.30;5.20;;;10.80;16.40;;;;;;20652744;28;20449;-40
2024/02/05 02:11:23;;;;;;;18.77;4.68;;;10.60;16.50;;;;;;20657680;28;20453;-39
2024/02/05 02:21:26;;;;;;;25.55;5.50;;;10.60;17.90;;;;;;20657790;28;20257;-40
2024/02/05 02:31:32;;;;;;;39.83;7.10;;;10.50;21.70;;;;;;20654623;28;20042;-39
2024/02/05 02:41:38;;;;;;;29.65;5.55;;;10.50;21.70;;;;;;20656510;28;20073;-40
2024/02/05 02:51:38;;;;;;;37.00;5.50;;;10.50;24.30;;;;;;20650383;28;20332;-40
2024/02/05 03:01:39;;;;;;;24.25;4.75;;;10.40;24.50;;;;;;20657683;28;20097;-40
2024/02/05 03:11:39;;;;;;;24.58;5.35;;;10.40;24.50;;;;;;20643488;28;20046;-40
2024/02/05 03:21:40;;;;;;;23.00;4.60;;;10.40;23.50;;;;;;20652228;28;20038;-40
2024/02/05 03:31:41;;;;;;;28.70;6.53;;;10.30;25.30;;;;;;20650848;28;20041;-40
2024/02/05 03:41:42;;;;;;;35.33;7.05;;;10.30;25.20;;;;;;20654539;28;20434;-39
2024/02/05 03:51:43;;;;;;;26.27;5.70;;;10.20;29.10;;;;;;20658857;28;20705;-40
2024/02/05 04:01:43;;;;;;;33.97;6.45;;;10.20;30.80;;;;;;20651964;28;20030;-40
2024/02/05 04:11:44;;;;;;;27.43;6.00;;;10.10;30.70;;;;;;20651455;28;20037;-39
2024/02/05 04:21:44;;;;;;;30.43;5.53;;;10.20;32.10;;;;;;20649896;28;20063;-39
2024/02/05 04:31:45;;;;;;;34.42;6.03;;;10.20;27.10;;;;;;20660608;28;20038;-40
2024/02/05 04:41:46;;;;;;;29.63;6.03;;;10.30;26.40;;;;;;20669335;28;22386;-39
2024/02/05 04:51:49;;;;;;;28.33;6.07;;;10.30;23.10;;;;;;20668605;28;20070;-39
2024/02/05 05:01:50;;;;;;;25.63;6.07;;;10.20;23.10;;;;;;20672936;28;20034;-39
2024/02/05 05:11:51;;;;;;;28.92;6.38;;;10.10;26.10;;;;;;20664452;28;20621;-39
2024/02/05 05:21:51;;;;;;;28.33;6.57;;;10.10;26.20;;;;;;20660289;28;20038;-39
2024/02/05 05:31:52;;;;;;;30.58;6.20;;;10.20;24.80;;;;;;20664957;28;20406;-40
2024/02/05 05:41:52;;;;;;;28.83;5.97;;;10.10;20.70;;;;;;20659495;28;20034;-39
2024/02/05 05:51:53;;;;;;;27.90;6.60;;;10.10;21.40;;;;;;20660444;28;20534;-40
2024/02/05 06:01:54;;;;;;;29.48;6.25;;;10.10;20.40;;;;;;20654849;28;20034;-39
2024/02/05 06:11:55;;;;;;;22.58;5.93;;;10.10;18.60;;;;;;20652054;28;20049;-39
2024/02/05 06:21:55;;;;;;;29.33;6.18;;;10.00;17.10;;;;;;20665841;28;20042;-40
2024/02/05 06:31:56;;;;;;;25.15;6.05;;;10.00;17.30;;;;;;20660976;28;20406;-39
2024/02/05 06:41:56;;;;;;;28.50;6.47;;;10.00;16.40;;;;;;20660347;28;20054;-40
2024/02/05 06:51:57;;;;;;;28.52;6.05;;;9.90;18.00;;;;;;20654815;28;20060;-40
2024/02/05 07:01:57;;;;;;;23.67;6.70;;;9.90;18.00;;;;;;20656262;28;20034;-40
2024/02/05 07:11:58;;;;;;;31.05;6.20;;;9.90;18.50;;;;;;20652717;28;20045;-40
2024/02/05 07:21:59;;;;;;;30.90;6.13;;;9.90;17.00;;;;;;20652505;28;20153;-39
2024/02/05 07:31:59;;;;;;;27.63;6.45;;;9.90;16.20;;;;;;20657590;28;20038;-39
2024/02/05 07:42:00;;;;;;;29.38;6.75;;;9.90;15.80;;;;;;20642800;28;20038;-39
2024/02/05 07:52:01;;;;;;;33.35;7.47;;;9.90;17.50;;;;;;20643845;28;20559;-39
2024/02/05 08:02:01;;;;;;;36.17;7.32;;;9.90;17.20;;;;;;20658878;28;20030;-39
2024/02/05 08:12:02;;;;;;;27.40;6.07;;;9.90;16.50;;;;;;20658360;28;20041;-39
2024/02/05 08:22:03;;;;;;;33.97;6.97;;;9.90;17.00;;;;;;20650922;28;21018;-39
2024/02/05 08:32:04;;;;;;;29.10;6.35;;;9.90;16.00;;;;;;20660543;28;20460;-39
2024/02/05 08:42:04;;;;;;;36.13;7.60;;;10.00;15.10;;;;;;20656654;28;20046;-40
2024/02/05 08:52:05;;;;;;;22.93;6.33;;;10.00;13.10;;;;;;20663280;28;20045;-39
2024/02/05 09:02:06;;;;;;;27.02;6.70;;;9.90;14.70;;;;;;20667153;28;20777;-40
2024/02/05 09:12:07;;;;;;;32.35;5.78;;;10.00;13.70;;;;;;20673951;28;20042;-40
2024/02/05 09:22:08;;;;;;;25.38;6.00;;;10.00;10.60;;;;;;20673490;28;20070;-39
2024/02/05 09:32:09;;;;;;;27.92;5.85;;;10.10;10.20;;;;;;20676399;28;20073;-40
2024/02/05 09:42:11;;;;;;;30.37;5.50;;;10.00;7.50;;;;;;20672093;28;20044;-40
2024/02/05 09:52:12;;;;;;;29.90;6.80;;;10.00;9.30;;;;;;20662977;28;20465;-40
2024/02/05 10:02:16;;;;;;;31.30;6.77;;;9.90;5.40;;;;;;20657003;28;20700;-40
2024/02/05 10:12:18;;;;;;;27.27;5.75;;;10.10;3.60;;;;;;20655871;28;20045;-40
2024/02/05 10:22:18;;;;;;;27.63;6.00;;;10.10;1.70;;;;;;20665191;28;20490;-40
2024/02/05 10:32:22;;;;;;;33.10;5.57;;;10.10;3.30;;;;;;20655993;28;20042;-40
2024/02/05 10:42:23;;;;;;;24.42;6.55;;;10.10;1.40;;;;;;20655276;28;20050;-40
2024/02/05 10:52:23;;;;;;;22.63;6.20;;;10.30;1.00;;;;;;20660450;28;20097;-40
2024/02/05 11:02:35;;;;;;;24.03;5.93;;;10.50;1.00;;;;;;20647774;28;20108;-40
2024/02/05 11:12:37;;;;;;;31.92;6.95;;;10.60;1.00;;;;;;20652241;28;20462;-40
2024/02/05 11:22:40;;;;;;;25.00;5.35;;;10.60;1.00;;;;;;20650555;28;20381;-40
2024/02/05 11:32:40;;;;;;;30.85;5.78;;;10.70;1.00;;;;;;20653292;28;20153;-39
2024/02/05 11:42:41;;;;;;;28.35;5.60;;;10.80;1.00;;;;;;20652820;28;20530;-40
2024/02/05 11:52:42;;;;;;;28.77;6.07;;;10.90;1.00;;;;;;20656237;28;20498;-40
2024/02/05 12:02:45;;;;;;;25.05;5.50;;;11.00;1.00;;;;;;20653943;28;20312;-41
2024/02/05 12:12:46;;;;;;;21.88;6.07;;;10.90;1.00;;;;;;20648909;28;21375;-40
2024/02/05 12:22:47;;;;;;;26.65;5.35;;;10.90;1.00;;;;;;20649611;28;20030;-40
2024/02/05 12:32:55;;;;;;;26.77;5.38;;;10.90;1.00;;;;;;20644649;28;20049;-40
2024/02/05 12:43:01;;;;;;;30.80;6.78;;;11.00;1.00;;;;;;20651001;28;20041;-40
2024/02/05 12:53:02;;;;;;;26.80;5.93;;;11.00;1.00;;;;;;20665216;28;20046;-40
2024/02/05 13:03:03;;;;;;;27.65;4.82;;;11.10;1.00;;;;;;20667781;28;20529;-40
2024/02/05 13:13:05;;;;;;;18.27;5.25;;;11.10;1.00;;;;;;20678679;28;20563;-40
2024/02/05 13:23:06;;;;;;;22.65;5.93;;;10.90;1.00;;;;;;20666834;28;20489;-40
2024/02/05 13:33:07;;;;;;;20.65;5.55;;;10.80;1.00;;;;;;20655286;28;20478;-40
2024/02/05 13:43:08;;;;;;;25.92;4.60;;;10.90;1.00;;;;;;20657249;28;20045;-40
2024/02/05 13:53:08;;;;;;;21.55;4.20;;;10.90;1.00;;;;;;20618557;28;20050;-40
2024/02/05 14:03:10;;;;;;;16.83;4.90;;;10.80;1.00;;;;;;20653487;28;20034;-40
2024/02/05 14:13:11;;;;;;;18.17;4.93;;;11.00;1.00;;;;;;20659103;28;20057;-40
2024/02/05 14:23:12;;;;;;;20.45;3.33;;;11.00;1.00;;;;;;20656945;28;20104;-40
2024/02/05 14:33:12;;;;;;;15.18;3.38;;;11.00;1.00;;;;;;20659685;28;20046;-40
2024/02/05 14:43:13;;;;;;;17.93;4.07;;;10.80;1.00;;;;;;20653065;28;20143;-41
2024/02/05 14:53:14;;;;;;;13.27;4.33;;;10.80;1.00;;;;;;20662577;28;20486;-40
2024/02/05 15:03:14;;;;;;;13.53;3.90;;;10.80;1.00;;;;;;20653804;28;20418;-40
2024/02/05 15:13:15;;;;;;;14.53;4.43;;;10.90;1.00;;;;;;20650789;28;20050;-40
2024/02/05 15:23:15;;;;;;;12.82;4.10;;;10.90;1.00;;;;;;20659095;28;20042;-41
2024/02/05 15:33:16;;;;;;;12.98;2.70;;;10.90;1.00;;;;;;20655906;28;20042;-40
2024/02/05 15:43:17;;;;;;;15.35;5.97;;;10.80;1.00;;;;;;20661017;28;20033;-40
2024/02/05 15:53:18;;;;;;;9.38;4.05;;;10.70;1.00;;;;;;20657430;28;20054;-40
2024/02/05 16:03:18;;;;;;;11.68;3.53;;;10.80;1.00;;;;;;20667679;28;20035;-40
2024/02/05 16:13:19;;;;;;;10.13;3.25;;;10.80;1.00;;;;;;20671077;28;20046;-40
2024/02/05 16:23:19;;;;;;;7.72;2.10;;;10.70;1.00;;;;;;20678451;28;20041;-40
2024/02/05 16:33:20;;;;;;;17.63;6.75;;;10.60;1.00;;;;;;20679675;28;20041;-41
2024/02/05 16:43:21;;;;;;;8.82;2.97;;;10.40;1.00;;;;;;20671182;28;20447;-41
2024/02/05 16:53:22;;;;;;;6.35;1.70;;;10.40;5.30;;;;;;20668099;28;20236;-40
2024/02/05 17:03:22;;;;;;;5.65;2.00;;;10.40;7.60;;;;;;20671364;28;20042;-40
2024/02/05 17:13:24;;;;;;;8.48;2.03;;;10.20;11.80;;;;;;20674161;28;20042;-40
2024/02/05 17:23:25;;;;;;;12.73;6.70;;;10.20;16.20;;;;;;20658053;28;20516;-41
2024/02/05 17:33:25;;;;;;;4.80;2.47;;;10.10;19.80;;;;;;20649697;28;20133;-40
2024/02/05 17:43:26;;;;;;;5.70;2.00;;;10.00;25.60;;;;;;20612023;28;20045;-40
2024/02/05 17:53:27;;;;;;;6.83;3.17;;;10.10;30.00;;;;;;20647491;28;20668;-40
2024/02/05 18:03:27;;;;;;;7.28;3.30;;;10.10;37.40;;;;;;20646135;28;20452;-40
2024/02/05 18:13:28;;;;;;;7.63;2.65;;;10.00;35.10;;;;;;20652094;28;20546;-41
2024/02/05 18:23:28;;;;;;;7.93;1.77;;;10.10;28.80;;;;;;20641683;28;20044;-40
2024/02/05 18:33:30;;;;;;;9.35;2.60;;;10.10;27.50;;;;;;20652276;28;20489;-40
2024/02/05 18:43:31;;;;;;;9.93;3.53;;;10.20;23.80;;;;;;20660907;28;20030;-40
2024/02/05 18:53:31;;;;;;;15.15;6.38;;;10.30;20.90;;;;;;20653224;28;20144;-40
2024/02/05 19:03:32;;;;;;;10.43;4.30;;;10.30;18.90;;;;;;20651843;28;20037;-40
2024/02/05 19:13:32;;;;;;;14.75;5.80;;;10.20;21.00;;;;;;20655807;28;20544;-40
2024/02/05 19:23:33;;;;;;;10.75;3.60;;;10.30;17.40;;;;;;20643506;28;20397;-40
2024/02/05 19:33:34;;;;;;;10.93;2.72;;;10.40;13.00;;;;;;20654022;28;21309;-40
2024/02/05 19:43:37;;;;;;;14.65;3.67;;;10.40;8.80;;;;;;20647904;28;20042;-40
2024/02/05 19:53:37;;;;;;;12.43;2.53;;;10.50;7.10;;;;;;20647231;28;20046;-40
2024/02/05 20:03:38;;;;;;;12.77;2.90;;;10.50;4.70;;;;;;20644479;28;20042;-40
2024/02/05 20:13:38;;;;;;;9.13;2.25;;;10.50;2.00;;;;;;20645697;28;20468;-40
2024/02/05 20:23:39;;;;;;;12.65;2.28;;;10.50;2.10;;;;;;20644437;28;20516;-40
2024/02/05 20:33:40;;;;;;;13.10;3.10;;;10.50;2.30;;;;;;20644424;28;20337;-40
2024/02/05 20:43:41;;;;;;;9.15;2.28;;;10.50;3.00;;;;;;20639628;28;20453;-40
2024/02/05 20:53:42;;;;;;;11.48;2.75;;;10.50;5.40;;;;;;20653375;28;20648;-40
2024/02/05 21:03:43;;;;;;;10.63;2.83;;;10.50;8.70;;;;;;20648103;28;20243;-40
2024/02/05 21:13:44;;;;;;;14.90;3.17;;;10.50;10.20;;;;;;20671488;28;20037;-40
2024/02/05 21:23:44;;;;;;;14.00;3.45;;;10.50;10.00;;;;;;20676385;28;20814;-40
2024/02/05 21:33:45;;;;;;;12.18;3.10;;;10.50;10.50;;;;;;20668247;28;20104;-40
2024/02/05 21:43:46;;;;;;;15.95;3.53;;;10.60;9.70;;;;;;20675775;28;20072;-40
2024/02/05 21:53:46;;;;;;;10.75;3.10;;;10.60;6.20;;;;;;20672303;28;20589;-40
2024/02/05 22:03:47;;;;;;;14.45;3.03;;;10.60;1.50;;;;;;20656575;28;20045;-40
2024/02/05 22:13:47;;;;;;;15.43;3.47;;;10.70;1.00;;;;;;20663211;28;20040;-40
2024/02/05 22:23:48;;;;;;;15.35;3.67;;;10.80;1.00;;;;;;20651537;28;20046;-40
2024/02/05 22:33:49;;;;;;;15.38;3.67;;;10.80;1.00;;;;;;20644241;28;20509;-40
2024/02/05 22:43:49;;;;;;;14.48;4.95;;;10.80;1.00;;;;;;20644825;28;20041;-41
2024/02/05 22:53:50;;;;;;;12.27;3.50;;;10.80;1.00;;;;;;20641134;28;20060;-40
2024/02/05 23:03:50;;;;;;;18.98;4.15;;;10.80;1.00;;;;;;20647754;28;20451;-40
2024/02/05 23:13:52;;;;;;;15.55;3.85;;;10.70;1.00;;;;;;20637783;28;20049;-40
2024/02/05 23:23:53;;;;;;;17.20;4.22;;;10.70;1.00;;;;;;20647638;28;20112;-40
2024/02/05 23:33:54;;;;;;;17.00;4.25;;;10.70;1.00;;;;;;20645374;28;20473;-40
2024/02/05 23:43:54;;;;;;;17.13;4.28;;;10.70;1.00;;;;;;20643483;28;20026;-40
2024/02/05 23:53:57;;;;;;;12.57;3.20;;;10.70;1.50;;;;;;20644988;28;21016;-40
